createdAt,value
2018-09-01T00:02:09.152Z,12.00
2018-09-01T00:04:38.119Z,11.96
2018-09-01T00:07:06.761Z,11.90
2018-09-01T00:09:36.364Z,11.83
2018-09-01T00:12:05.941Z,11.78
2018-09-01T00:14:34.309Z,11.63
2018-09-01T00:17:03.056Z,11.64
2018-09-01T00:19:31.496Z,11.64
2018-09-01T00:21:59.893Z,11.60
2018-09-01T00:24:28.286Z,11.53
2018-09-01T00:26:56.724Z,11.58
2018-09-01T00:29:25.144Z,11.61
2018-09-01T00:31:53.573Z,11.55
2018-09-01T00:34:22.003Z,11.60
2018-09-01T00:36:50.404Z,11.64
2018-09-01T00:39:19.699Z,11.69
2018-09-01T00:41:48.193Z,11.71
2018-09-01T00:44:16.673Z,11.79
2018-09-01T00:46:45.051Z,11.83
2018-09-01T00:49:13.469Z,11.79
2018-09-01T00:51:41.881Z,11.75
2018-09-01T00:54:10.295Z,11.72
2018-09-01T00:56:38.771Z,11.69
2018-09-01T00:59:07.240Z,11.67
2018-09-01T01:01:35.684Z,11.64
2018-09-01T01:04:04.160Z,11.60
2018-09-01T01:06:32.562Z,11.53
2018-09-01T01:09:00.953Z,11.45
2018-09-01T01:11:29.373Z,11.32
2018-09-01T01:13:57.761Z,11.36
2018-09-01T01:16:26.210Z,11.31
2018-09-01T01:18:54.612Z,11.35
2018-09-01T01:21:23.056Z,11.33
2018-09-01T01:23:51.482Z,11.32
2018-09-01T01:26:19.884Z,11.36
2018-09-01T01:28:48.309Z,11.35
2018-09-01T01:31:16.713Z,11.32
2018-09-01T01:33:45.149Z,11.35
2018-09-01T01:36:13.571Z,11.36
2018-09-01T01:38:42.225Z,11.29
2018-09-01T01:41:10.633Z,11.18
2018-09-01T01:43:39.080Z,11.14
2018-09-01T01:46:07.521Z,11.09
2018-09-01T01:48:36.082Z,10.96
2018-09-01T01:51:04.596Z,10.94
2018-09-01T01:53:32.976Z,10.96
2018-09-01T01:56:01.429Z,10.96
2018-09-01T01:58:29.832Z,10.88
2018-09-01T02:00:58.316Z,10.91
2018-09-01T02:03:26.724Z,10.96
2018-09-01T02:05:55.110Z,10.99
2018-09-01T02:08:23.569Z,11.01
2018-09-01T02:10:51.990Z,11.04
2018-09-01T02:13:20.397Z,11.01
2018-09-01T02:15:48.882Z,11.06
2018-09-01T02:18:17.259Z,11.05
2018-09-01T02:20:46.712Z,11.05
2018-09-01T02:23:15.188Z,11.00
2018-09-01T02:25:43.658Z,10.99
2018-09-01T02:28:12.063Z,11.00
2018-09-01T02:30:40.499Z,10.98
2018-09-01T02:33:09.151Z,10.94
2018-09-01T02:35:37.591Z,10.88
2018-09-01T02:38:05.972Z,10.85
2018-09-01T02:40:34.457Z,10.84
2018-09-01T02:43:02.843Z,10.84
2018-09-01T02:45:31.281Z,10.79
2018-09-01T02:47:59.676Z,10.79
2018-09-01T02:50:28.084Z,10.77
2018-09-01T02:52:56.505Z,10.75
2018-09-01T02:55:24.924Z,10.73
2018-09-01T02:57:53.306Z,10.78
2018-09-01T03:00:27.134Z,10.74
2018-09-01T03:02:55.553Z,10.63
2018-09-01T03:05:23.990Z,10.63
2018-09-01T03:07:52.434Z,10.63
2018-09-01T03:10:20.869Z,10.66
2018-09-01T03:12:49.301Z,10.66
2018-09-01T03:15:17.765Z,10.65
2018-09-01T03:17:46.239Z,10.62
2018-09-01T03:20:14.700Z,10.64
2018-09-01T03:22:43.121Z,10.57
2018-09-01T03:25:11.528Z,10.53
2018-09-01T03:27:39.943Z,10.51
2018-09-01T03:30:08.421Z,10.47
2018-09-01T03:32:36.780Z,10.44
2018-09-01T03:35:05.846Z,10.41
2018-09-01T03:37:34.260Z,10.43
2018-09-01T03:40:02.688Z,10.41
2018-09-01T03:42:31.077Z,10.40
2018-09-01T03:44:59.507Z,10.35
2018-09-01T03:47:28.689Z,10.36
2018-09-01T03:49:57.165Z,10.45
2018-09-01T03:52:25.544Z,10.46
2018-09-01T03:54:53.948Z,10.35
2018-09-01T03:57:22.378Z,10.32
2018-09-01T03:59:50.769Z,10.30
2018-09-01T04:02:19.199Z,10.27
2018-09-01T04:04:47.708Z,10.29
2018-09-01T04:07:16.137Z,10.30
2018-09-01T04:09:44.588Z,10.33
2018-09-01T04:12:13.044Z,10.38
2018-09-01T04:14:41.495Z,10.38
2018-09-01T04:17:09.932Z,10.36
2018-09-01T04:19:38.357Z,10.31
2018-09-01T04:22:06.748Z,10.31
2018-09-01T04:24:35.168Z,10.32
2018-09-01T04:27:03.626Z,10.29
2018-09-01T04:29:32.093Z,10.26
2018-09-01T04:32:00.535Z,10.27
2018-09-01T04:34:29.928Z,10.21
2018-09-01T04:36:59.356Z,10.15
2018-09-01T04:39:27.793Z,10.14
2018-09-01T04:41:57.191Z,10.13
2018-09-01T04:44:25.667Z,10.14
2018-09-01T04:46:54.145Z,10.09
2018-09-01T04:49:22.532Z,10.09
2018-09-01T04:51:50.943Z,10.12
2018-09-01T04:54:19.346Z,10.12
2018-09-01T04:56:47.835Z,10.09
2018-09-01T04:59:16.262Z,10.12
2018-09-01T05:01:44.700Z,10.16
2018-09-01T05:04:13.629Z,10.17
2018-09-01T05:06:42.075Z,10.18
2018-09-01T05:09:10.500Z,10.13
2018-09-01T05:11:38.952Z,10.11
2018-09-01T05:14:07.450Z,10.10
2018-09-01T05:19:03.436Z,10.13
2018-09-01T05:21:31.869Z,10.13
2018-09-01T05:24:00.347Z,10.17
2018-09-01T05:26:28.776Z,10.16
2018-09-01T05:28:57.285Z,10.22
2018-09-01T05:31:25.741Z,10.23
2018-09-01T05:33:54.228Z,10.29
2018-09-01T05:36:22.747Z,10.29
2018-09-01T05:38:51.168Z,10.32
2018-09-01T05:41:19.601Z,10.34
2018-09-01T05:43:49.665Z,10.36
2018-09-01T05:46:18.006Z,10.41
2018-09-01T05:48:46.437Z,10.31
2018-09-01T05:51:14.951Z,10.51
2018-09-01T05:53:43.363Z,10.52
2018-09-01T05:56:11.824Z,10.50
2018-09-01T05:58:40.278Z,10.52
2018-09-01T06:01:08.788Z,10.52
2018-09-01T06:03:37.282Z,10.57
2018-09-01T06:06:05.808Z,10.66
2018-09-01T06:08:34.216Z,10.74
2018-09-01T06:11:02.653Z,10.80
2018-09-01T06:13:31.154Z,10.83
2018-09-01T06:15:59.644Z,10.89
2018-09-01T06:18:28.120Z,10.95
2018-09-01T06:20:56.524Z,10.95
2018-09-01T06:23:24.963Z,11.07
2018-09-01T06:25:53.363Z,11.14
2018-09-01T06:28:26.723Z,11.21
2018-09-01T06:30:55.741Z,11.27
2018-09-01T06:33:24.200Z,11.33
2018-09-01T06:35:52.672Z,11.42
2018-09-01T06:38:21.090Z,11.51
2018-09-01T06:40:49.529Z,11.57
2018-09-01T06:43:18.651Z,11.60
2018-09-01T06:45:47.099Z,11.63
2018-09-01T06:48:15.581Z,11.65
2018-09-01T06:50:43.996Z,11.67
2018-09-01T06:53:12.446Z,11.75
2018-09-01T06:55:40.882Z,11.84
2018-09-01T06:58:09.288Z,11.98
2018-09-01T07:00:37.732Z,12.04
2018-09-01T07:03:06.315Z,12.07
2018-09-01T07:05:34.772Z,12.10
2018-09-01T07:08:03.260Z,12.15
2018-09-01T07:10:31.703Z,12.23
2018-09-01T07:13:00.112Z,12.35
2018-09-01T07:17:56.197Z,12.48
2018-09-01T07:20:24.597Z,12.53
2018-09-01T07:22:53.031Z,12.59
2018-09-01T07:25:21.437Z,12.58
2018-09-01T07:27:49.864Z,12.72
2018-09-01T07:30:18.463Z,12.79
2018-09-01T07:32:46.848Z,12.83
2018-09-01T07:35:15.357Z,12.87
2018-09-01T07:37:43.792Z,12.90
2018-09-01T07:40:12.252Z,12.91
2018-09-01T07:42:41.032Z,12.95
2018-09-01T07:45:09.546Z,13.01
2018-09-01T07:47:37.992Z,13.11
2018-09-01T07:50:06.470Z,13.18
2018-09-01T07:52:34.875Z,13.22
2018-09-01T07:55:03.372Z,13.25
2018-09-01T07:57:31.757Z,13.23
2018-09-01T08:00:00.243Z,13.14
2018-09-01T08:02:28.702Z,13.20
2018-09-01T08:04:57.418Z,13.31
2018-09-01T08:07:25.963Z,13.37
2018-09-01T08:09:54.400Z,13.39
2018-09-01T08:12:22.844Z,13.36
2018-09-01T08:14:51.346Z,13.39
2018-09-01T08:17:19.839Z,13.41
2018-09-01T08:19:49.368Z,13.45
2018-09-01T08:22:17.823Z,13.48
2018-09-01T08:24:46.611Z,13.51
2018-09-01T08:27:15.048Z,13.56
2018-09-01T08:29:44.101Z,13.65
2018-09-01T08:32:12.572Z,13.66
2018-09-01T08:34:41.000Z,13.67
2018-09-01T08:37:09.481Z,13.67
2018-09-01T08:39:37.940Z,13.92
2018-09-01T08:42:06.381Z,13.90
2018-09-01T08:44:35.129Z,13.92
2018-09-01T08:47:03.677Z,13.91
2018-09-01T08:49:32.242Z,14.03
2018-09-01T08:52:00.701Z,14.06
2018-09-01T08:54:29.136Z,14.06
2018-09-01T08:56:57.545Z,14.06
2018-09-01T08:59:26.070Z,14.13
2018-09-01T09:01:54.494Z,14.42
2018-09-01T09:04:22.897Z,14.52
2018-09-01T09:06:51.876Z,14.58
2018-09-01T09:09:20.278Z,14.61
2018-09-01T09:11:48.800Z,14.79
2018-09-01T09:14:17.338Z,14.66
2018-09-01T09:16:45.881Z,14.51
2018-09-01T09:19:14.334Z,14.53
2018-09-01T09:21:43.690Z,14.61
2018-09-01T09:24:12.849Z,14.61
2018-09-01T09:26:41.387Z,14.56
2018-09-01T09:29:10.333Z,14.67
2018-09-01T09:31:38.783Z,14.75
2018-09-01T09:34:09.454Z,14.66
2018-09-01T09:36:37.857Z,14.56
2018-09-01T09:39:08.535Z,14.54
2018-09-01T09:41:36.943Z,14.56
2018-09-01T09:44:05.472Z,14.55
2018-09-01T09:46:33.903Z,14.58
2018-09-01T09:49:02.496Z,14.74
2018-09-01T09:51:30.982Z,14.81
2018-09-01T09:53:59.551Z,15.01
2018-09-01T09:56:27.996Z,15.12
2018-09-01T09:58:56.477Z,15.10
2018-09-01T10:01:28.996Z,15.25
2018-09-01T10:03:58.145Z,15.21
2018-09-01T10:06:26.980Z,15.14
2018-09-01T10:08:55.393Z,15.20
2018-09-01T10:11:23.893Z,15.24
2018-09-01T10:13:52.280Z,15.15
2018-09-01T10:16:20.742Z,15.10
2018-09-01T10:18:49.192Z,15.04
2018-09-01T10:21:17.599Z,15.04
2018-09-01T10:23:46.033Z,15.13
2018-09-01T10:26:14.497Z,15.33
2018-09-01T10:28:42.999Z,15.60
2018-09-01T10:31:11.443Z,15.51
2018-09-01T10:33:40.253Z,15.51
2018-09-01T10:36:08.684Z,15.49
2018-09-01T10:38:37.306Z,15.65
2018-09-01T10:41:05.825Z,15.70
2018-09-01T10:43:34.335Z,15.75
2018-09-01T10:46:02.817Z,15.90
2018-09-01T10:48:31.309Z,16.05
2018-09-01T10:50:59.774Z,16.19
2018-09-01T10:53:28.860Z,16.25
2018-09-01T10:55:57.303Z,16.24
2018-09-01T10:58:25.816Z,16.14
2018-09-01T11:00:54.361Z,16.12
2018-09-01T11:03:22.779Z,16.18
2018-09-01T11:05:51.211Z,16.09
2018-09-01T11:08:20.438Z,15.99
2018-09-01T11:10:48.952Z,16.00
2018-09-01T11:13:17.436Z,16.01
2018-09-01T11:15:45.921Z,16.34
2018-09-01T11:18:14.369Z,16.37
2018-09-01T11:20:42.842Z,16.40
2018-09-01T11:23:11.585Z,16.41
2018-09-01T11:25:40.220Z,16.33
2018-09-01T11:28:08.973Z,16.32
2018-09-01T11:30:38.595Z,16.36
2018-09-01T11:33:07.160Z,16.45
2018-09-01T11:35:36.897Z,16.45
2018-09-01T11:38:05.412Z,16.44
2018-09-01T11:40:33.857Z,16.36
2018-09-01T11:43:02.339Z,16.31
2018-09-01T11:45:30.770Z,16.36
2018-09-01T11:47:59.212Z,16.38
2018-09-01T11:50:27.897Z,16.49
2018-09-01T11:52:56.359Z,16.64
2018-09-01T11:55:24.801Z,16.86
2018-09-01T11:57:53.231Z,16.99
2018-09-01T12:00:21.833Z,17.06
2018-09-01T12:02:54.309Z,16.98
2018-09-01T12:05:22.713Z,16.91
2018-09-01T12:07:51.370Z,16.74
2018-09-01T12:10:19.783Z,16.69
2018-09-01T12:12:48.255Z,16.61
2018-09-01T12:15:16.785Z,16.57
2018-09-01T12:17:45.223Z,16.81
2018-09-01T12:20:13.649Z,17.25
2018-09-01T12:22:42.131Z,17.59
2018-09-01T12:25:10.560Z,17.91
2018-09-01T12:27:39.615Z,17.90
2018-09-01T12:30:08.151Z,17.78
2018-09-01T12:32:36.616Z,17.55
2018-09-01T12:35:05.220Z,18.06
2018-09-01T12:37:34.157Z,18.81
2018-09-01T12:40:02.594Z,19.39
2018-09-01T12:42:33.367Z,19.96
2018-09-01T12:45:02.036Z,20.30
2018-09-01T12:47:32.211Z,20.14
2018-09-01T12:50:00.696Z,19.46
2018-09-01T12:52:29.552Z,18.86
2018-09-01T12:54:57.980Z,18.33
2018-09-01T12:57:26.432Z,17.92
2018-09-01T12:59:54.902Z,18.16
2018-09-01T13:02:25.272Z,19.19
2018-09-01T13:04:53.940Z,19.72
2018-09-01T13:07:22.394Z,20.05
2018-09-01T13:09:50.872Z,20.53
2018-09-01T13:12:19.284Z,20.54
2018-09-01T13:14:48.748Z,20.79
2018-09-01T13:17:17.164Z,20.74
2018-09-01T13:19:46.259Z,21.02
2018-09-01T13:22:14.774Z,21.06
2018-09-01T13:24:43.228Z,21.21
2018-09-01T13:27:11.689Z,21.25
2018-09-01T13:29:40.095Z,21.11
2018-09-01T13:32:08.576Z,21.24
2018-09-01T13:34:37.064Z,21.06
2018-09-01T13:37:05.809Z,20.75
2018-09-01T13:39:34.259Z,20.49
2018-09-01T13:42:02.698Z,20.41
2018-09-01T13:44:31.162Z,20.24
2018-09-01T13:46:59.803Z,19.80
2018-09-01T13:49:28.267Z,19.42
2018-09-01T13:51:57.572Z,19.22
2018-09-01T13:54:25.970Z,19.27
2018-09-01T13:56:54.395Z,19.20
2018-09-01T13:59:22.886Z,19.10
2018-09-01T14:01:51.322Z,18.97
2018-09-01T14:04:19.736Z,18.92
2018-09-01T14:06:48.228Z,19.05
2018-09-01T14:09:16.634Z,18.95
2018-09-01T14:11:45.085Z,18.83
2018-09-01T14:14:13.497Z,18.83
2018-09-01T14:16:41.920Z,18.75
2018-09-01T14:19:10.339Z,18.71
2018-09-01T14:21:38.773Z,18.82
2018-09-01T14:24:07.237Z,18.94
2018-09-01T14:26:35.662Z,18.94
2018-09-01T14:29:04.120Z,18.99
2018-09-01T14:31:32.551Z,19.08
2018-09-01T14:34:01.828Z,19.13
2018-09-01T14:36:30.346Z,19.11
2018-09-01T14:38:58.764Z,18.97
2018-09-01T14:41:27.244Z,18.77
2018-09-01T14:43:55.728Z,18.65
2018-09-01T14:46:24.340Z,18.52
2018-09-01T14:48:52.780Z,18.46
2018-09-01T14:51:21.238Z,18.41
2018-09-01T14:53:49.652Z,18.44
2018-09-01T14:56:18.058Z,18.50
2018-09-01T14:58:46.476Z,18.61
2018-09-01T15:01:15.915Z,18.84
2018-09-01T15:03:44.388Z,18.99
2018-09-01T15:06:12.872Z,19.11
2018-09-01T15:08:41.314Z,19.04
2018-09-01T15:11:09.747Z,18.89
2018-09-01T15:13:38.216Z,18.74
2018-09-01T15:16:06.687Z,18.62
2018-09-01T15:18:35.156Z,18.48
2018-09-01T15:21:03.669Z,18.37
2018-09-01T15:23:32.342Z,18.28
2018-09-01T15:26:00.734Z,18.20
2018-09-01T15:28:29.175Z,18.26
2018-09-01T15:30:57.638Z,18.33
2018-09-01T15:33:26.068Z,18.44
2018-09-01T15:35:54.656Z,18.56
2018-09-01T15:38:23.109Z,18.74
2018-09-01T15:40:51.637Z,18.96
2018-09-01T15:43:20.132Z,19.02
2018-09-01T15:45:48.604Z,19.10
2018-09-01T15:48:17.116Z,19.00
2018-09-01T15:50:45.571Z,18.81
2018-09-01T15:53:14.020Z,18.65
2018-09-01T15:55:42.422Z,18.50
2018-09-01T15:58:10.875Z,18.38
2018-09-01T16:00:39.323Z,18.36
2018-09-01T16:03:07.813Z,18.42
2018-09-01T16:05:36.264Z,18.53
2018-09-01T16:08:05.060Z,18.60
2018-09-01T16:10:33.444Z,18.65
2018-09-01T16:13:02.163Z,18.71
2018-09-01T16:15:30.610Z,18.77
2018-09-01T16:17:59.029Z,18.82
2018-09-01T16:20:27.486Z,18.83
2018-09-01T16:22:55.894Z,18.94
2018-09-01T16:25:24.320Z,19.00
2018-09-01T16:27:52.808Z,19.03
2018-09-01T16:30:21.360Z,19.04
2018-09-01T16:32:49.782Z,19.05
2018-09-01T16:35:18.200Z,19.11
2018-09-01T16:37:46.626Z,19.10
2018-09-01T16:40:15.106Z,19.15
2018-09-01T16:42:43.468Z,19.19
2018-09-01T16:45:11.915Z,19.18
2018-09-01T16:47:40.435Z,19.19
2018-09-01T16:50:08.863Z,19.17
2018-09-01T16:52:37.289Z,19.11
2018-09-01T16:55:05.781Z,19.15
2018-09-01T16:57:35.180Z,19.17
2018-09-01T17:00:03.752Z,19.18
2018-09-01T17:02:33.067Z,19.17
2018-09-01T17:05:01.553Z,19.15
2018-09-01T17:07:30.009Z,19.13
2018-09-01T17:09:58.492Z,19.08
2018-09-01T17:12:26.951Z,19.07
2018-09-01T17:14:55.334Z,19.04
2018-09-01T17:17:23.807Z,19.01
2018-09-01T17:19:53.448Z,18.97
2018-09-01T17:22:21.917Z,18.94
2018-09-01T17:24:50.334Z,18.89
2018-09-01T17:27:19.209Z,18.84
2018-09-01T17:29:47.655Z,18.78
2018-09-01T17:32:16.112Z,18.72
2018-09-01T17:34:44.905Z,18.66
2018-09-01T17:37:13.416Z,18.56
2018-09-01T17:39:41.918Z,18.46
2018-09-01T17:42:10.425Z,18.40
2018-09-01T17:44:39.526Z,18.37
2018-09-01T17:47:08.720Z,18.32
2018-09-01T17:49:37.221Z,18.24
2018-09-01T17:52:05.956Z,18.16
2018-09-01T17:54:34.460Z,18.10
2018-09-01T17:57:03.025Z,18.04
2018-09-01T17:59:32.365Z,17.99
2018-09-01T18:02:00.820Z,17.94
2018-09-01T18:24:53.247Z,17.02
2018-09-01T18:27:22.196Z,16.90
2018-09-01T18:29:50.654Z,16.84
2018-09-01T18:32:19.232Z,16.88
2018-09-01T18:34:47.691Z,16.85
2018-09-01T18:37:16.099Z,16.79
2018-09-01T18:39:44.541Z,16.69
2018-09-01T18:42:13.713Z,16.57
2018-09-01T18:44:42.439Z,16.38
2018-09-01T18:47:10.933Z,16.20
2018-09-01T18:49:39.500Z,16.13
2018-09-01T18:52:07.969Z,16.14
2018-09-01T18:54:36.413Z,16.15
2018-09-01T18:57:05.201Z,16.05
2018-09-01T18:59:33.854Z,15.73
2018-09-01T19:02:02.334Z,15.58
2018-09-01T19:04:31.136Z,15.54
2018-09-01T19:06:59.601Z,15.63
2018-09-01T19:09:28.038Z,15.64
2018-09-01T19:11:56.549Z,15.66
2018-09-01T19:14:24.982Z,15.61
2018-09-01T19:16:53.449Z,15.52
2018-09-01T19:19:21.922Z,15.40
2018-09-01T19:21:50.632Z,15.51
2018-09-01T19:24:19.127Z,15.51
2018-09-01T19:26:48.020Z,15.49
2018-09-01T19:29:16.513Z,15.45
2018-09-01T19:31:45.140Z,15.33
2018-09-01T19:34:13.871Z,15.23
2018-09-01T19:36:42.305Z,15.14
2018-09-01T19:39:12.200Z,13.66
2018-09-01T19:41:41.340Z,15.03
2018-09-01T19:44:09.780Z,15.05
2018-09-01T19:46:38.395Z,15.03
2018-09-01T19:49:07.141Z,15.01
2018-09-01T19:51:35.901Z,14.95
2018-09-01T19:54:04.536Z,14.90
2018-09-01T19:56:33.184Z,14.78
2018-09-01T19:59:02.223Z,14.69
2018-09-01T20:01:31.435Z,14.59
2018-09-01T20:03:59.996Z,14.48
2018-09-01T20:06:30.079Z,14.24
2018-09-01T20:08:58.554Z,14.51
2018-09-01T20:11:27.028Z,14.46
2018-09-01T20:13:55.502Z,14.36
2018-09-01T20:16:24.980Z,14.27
2018-09-01T20:18:53.554Z,14.18
2018-09-01T20:21:22.401Z,14.11
2018-09-01T20:23:50.885Z,14.07
2018-09-01T20:26:19.838Z,14.06
2018-09-01T20:28:48.353Z,14.03
2018-09-01T20:31:16.808Z,14.05
2018-09-01T20:33:45.242Z,14.12
2018-09-01T20:36:20.333Z,14.17
2018-09-01T20:38:48.905Z,14.12
2018-09-01T20:41:17.432Z,14.10
2018-09-01T20:43:45.928Z,14.10
2018-09-01T20:46:14.379Z,14.04
2018-09-01T20:48:42.848Z,14.01
2018-09-01T20:51:11.324Z,13.95
2018-09-01T20:53:39.760Z,13.84
2018-09-01T20:56:08.369Z,13.78
2018-09-01T20:58:36.838Z,13.72
2018-09-01T21:01:05.318Z,13.67
2018-09-01T21:03:33.772Z,13.63
2018-09-01T21:06:02.266Z,13.69
2018-09-01T21:08:30.701Z,13.73
2018-09-01T21:10:59.144Z,13.65
2018-09-01T21:13:27.621Z,13.59
2018-09-01T21:15:56.068Z,13.50
2018-09-01T21:18:25.400Z,13.52
2018-09-01T21:20:53.824Z,13.43
2018-09-01T21:23:22.307Z,13.39
2018-09-01T21:25:50.770Z,13.37
2018-09-01T21:28:19.196Z,13.38
2018-09-01T21:30:47.672Z,13.33
2018-09-01T21:33:16.284Z,13.34
2018-09-01T21:35:44.776Z,13.40
2018-09-01T21:38:13.236Z,13.35
2018-09-01T21:40:41.704Z,13.29
2018-09-01T21:43:10.164Z,13.25
2018-09-01T21:45:38.670Z,13.28
2018-09-01T21:48:07.149Z,13.28
2018-09-01T21:50:35.634Z,13.25
2018-09-01T21:53:04.101Z,13.27
2018-09-01T21:55:32.606Z,13.24
2018-09-01T21:58:01.064Z,13.15
2018-09-01T22:00:29.561Z,13.33
2018-09-01T22:02:58.088Z,13.27
2018-09-01T22:05:26.587Z,13.42
2018-09-01T22:07:55.076Z,13.46
2018-09-01T22:10:23.564Z,13.41
2018-09-01T22:12:52.001Z,13.39
2018-09-01T22:15:20.456Z,13.40
2018-09-01T22:17:48.922Z,13.38
2018-09-01T22:20:17.356Z,13.36
2018-09-01T22:22:45.893Z,13.34
2018-09-01T22:25:14.909Z,13.37
2018-09-01T22:27:43.910Z,13.39
2018-09-01T22:30:12.364Z,13.41
2018-09-01T22:32:40.799Z,13.50
2018-09-01T22:35:09.384Z,13.56
2018-09-01T22:37:38.264Z,13.59
2018-09-01T22:40:06.814Z,13.65
2018-09-01T22:42:35.368Z,13.66
2018-09-01T22:45:03.832Z,13.71
2018-09-01T22:47:33.560Z,13.76
2018-09-01T22:50:02.052Z,13.82
2018-09-01T22:52:30.465Z,13.87
2018-09-01T22:54:58.933Z,13.91
2018-09-01T22:57:27.421Z,13.98
2018-09-01T22:59:55.877Z,14.04
2018-09-01T23:02:24.353Z,14.08
2018-09-01T23:04:52.786Z,14.12
2018-09-01T23:07:21.211Z,14.14
2018-09-01T23:09:49.720Z,14.15
2018-09-01T23:12:18.161Z,14.15
2018-09-01T23:14:46.565Z,14.17
2018-09-01T23:17:15.593Z,14.19
2018-09-01T23:19:44.019Z,14.21
2018-09-01T23:22:12.660Z,14.23
2018-09-01T23:24:41.118Z,14.24
2018-09-01T23:27:09.573Z,14.26
2018-09-01T23:29:38.997Z,14.26
2018-09-01T23:32:07.452Z,14.27
2018-09-01T23:34:35.884Z,14.29
2018-09-01T23:37:04.368Z,14.29
2018-09-01T23:39:32.810Z,14.32
2018-09-01T23:42:01.264Z,14.31
2018-09-01T23:44:29.728Z,14.31
2018-09-01T23:46:58.138Z,14.31
2018-09-01T23:49:26.586Z,14.30
2018-09-01T23:51:55.415Z,14.28
2018-09-01T23:54:23.862Z,14.30
2018-09-01T23:56:52.304Z,14.29
2018-09-01T23:59:20.767Z,14.30
